createdAt,value
2022-12-18T00:00:01.790Z,-7.57
2022-12-18T00:02:29.613Z,-7.62
2022-12-18T00:04:57.522Z,-7.46
2022-12-18T00:07:25.086Z,-7.53
2022-12-18T00:09:52.751Z,-7.59
2022-12-18T00:12:20.404Z,-7.65
2022-12-18T00:14:49.373Z,-7.85
2022-12-18T00:17:17.172Z,-7.94
2022-12-18T00:19:44.779Z,-7.85
2022-12-18T00:22:12.586Z,-7.93
2022-12-18T00:24:40.568Z,-7.98
2022-12-18T00:27:08.201Z,-8.02
2022-12-18T00:29:36.404Z,-8.11
2022-12-18T00:32:05.704Z,-7.97
2022-12-18T00:34:33.579Z,-7.98
2022-12-18T00:37:01.200Z,-8.00
2022-12-18T00:39:28.898Z,-8.01
2022-12-18T00:42:13.827Z,-8.17
2022-12-18T00:44:41.523Z,-7.88
2022-12-18T00:47:10.471Z,-7.89
2022-12-18T00:49:38.383Z,-7.81
2022-12-18T00:52:06.031Z,-7.90
2022-12-18T00:54:34.216Z,-7.84
2022-12-18T00:57:01.792Z,-7.86
2022-12-18T00:59:29.424Z,-7.83
2022-12-18T01:01:57.281Z,-7.96
2022-12-18T01:04:26.389Z,-7.91
2022-12-18T01:06:53.996Z,-8.01
2022-12-18T01:09:21.644Z,-8.04
2022-12-18T01:11:49.256Z,-8.04
2022-12-18T01:14:17.069Z,-8.25
2022-12-18T01:16:44.879Z,-8.24
2022-12-18T01:19:12.702Z,-8.23
2022-12-18T01:21:42.189Z,-8.30
2022-12-18T01:24:09.844Z,-8.46
2022-12-18T01:26:37.465Z,-8.48
2022-12-18T01:29:05.104Z,-8.62
2022-12-18T01:31:34.821Z,-8.49
2022-12-18T01:34:04.836Z,-8.69
2022-12-18T01:36:33.788Z,-8.66
2022-12-18T01:39:03.757Z,-8.65
2022-12-18T01:41:52.724Z,-8.59
2022-12-18T01:44:57.938Z,-8.74
2022-12-18T01:47:28.467Z,-8.71
2022-12-18T01:49:57.135Z,-8.73
2022-12-18T01:52:27.016Z,-8.73
2022-12-18T01:54:56.847Z,-8.81
2022-12-18T01:57:25.813Z,-8.90
2022-12-18T01:59:55.377Z,-8.82
2022-12-18T02:02:23.412Z,-8.88
2022-12-18T02:04:51.304Z,-8.86
2022-12-18T02:07:24.731Z,-8.75
2022-12-18T02:09:59.570Z,-8.87
2022-12-18T02:12:32.700Z,-9.19
2022-12-18T02:15:03.121Z,-8.65
2022-12-18T02:17:33.638Z,-8.94
2022-12-18T02:20:08.038Z,-8.90
2022-12-18T02:22:41.256Z,-8.79
2022-12-18T02:25:18.696Z,-8.92
2022-12-18T02:27:49.439Z,-9.05
2022-12-18T02:30:20.254Z,-8.81
2022-12-18T02:32:52.001Z,-8.72
2022-12-18T02:35:24.947Z,-8.67
2022-12-18T02:37:56.114Z,-8.69
2022-12-18T02:40:25.680Z,-8.68
2022-12-18T02:42:54.742Z,-8.60
2022-12-18T02:45:22.855Z,-8.54
2022-12-18T02:47:51.498Z,-8.70
2022-12-18T02:50:21.543Z,-8.57
2022-12-18T02:52:58.403Z,-8.50
2022-12-18T02:55:33.629Z,-8.61
2022-12-18T02:58:06.005Z,-8.65
2022-12-18T03:00:36.387Z,-8.66
2022-12-18T03:03:09.053Z,-8.60
2022-12-18T03:05:39.935Z,-8.70
2022-12-18T03:08:09.812Z,-8.69
2022-12-18T03:10:40.722Z,-8.84
2022-12-18T03:13:12.856Z,-8.84
2022-12-18T03:15:44.829Z,-8.89
2022-12-18T03:18:15.256Z,-8.88
2022-12-18T03:20:44.724Z,-9.00
2022-12-18T03:23:15.898Z,-9.06
2022-12-18T03:25:45.272Z,-8.90
2022-12-18T03:28:16.465Z,-9.18
2022-12-18T03:30:46.056Z,-9.19
2022-12-18T03:33:20.474Z,-9.26
2022-12-18T03:35:48.328Z,-9.27
2022-12-18T03:38:16.207Z,-9.32
2022-12-18T03:40:50.298Z,-9.28
2022-12-18T03:43:22.933Z,-9.13
2022-12-18T03:45:54.355Z,-9.32
2022-12-18T03:48:27.970Z,-9.27
2022-12-18T03:50:58.652Z,-9.25
2022-12-18T03:53:34.010Z,-9.30
2022-12-18T03:56:02.854Z,-9.24
2022-12-18T03:58:33.940Z,-9.22
2022-12-18T04:01:05.148Z,-9.11
2022-12-18T04:03:33.911Z,-9.06
2022-12-18T04:06:02.950Z,-9.09
2022-12-18T04:08:31.325Z,-9.15
2022-12-18T04:10:58.915Z,-9.11
2022-12-18T04:13:27.134Z,-9.22
2022-12-18T04:15:56.173Z,-9.20
2022-12-18T04:18:23.782Z,-9.21
2022-12-18T04:20:51.341Z,-9.13
2022-12-18T04:23:19.000Z,-9.16
2022-12-18T04:25:47.373Z,-9.08
2022-12-18T04:28:14.974Z,-9.13
2022-12-18T04:30:42.743Z,-9.18
2022-12-18T04:33:12.705Z,-9.07
2022-12-18T04:35:40.672Z,-9.18
2022-12-18T04:38:09.215Z,-9.19
2022-12-18T04:40:36.939Z,-9.13
2022-12-18T04:43:04.900Z,-9.20
2022-12-18T04:45:32.657Z,-9.15
2022-12-18T04:48:00.269Z,-9.13
2022-12-18T04:50:29.696Z,-9.19
2022-12-18T04:52:57.528Z,-9.01
2022-12-18T04:55:25.168Z,-9.19
2022-12-18T04:57:52.783Z,-9.15
2022-12-18T05:00:20.522Z,-9.03
2022-12-18T05:02:48.306Z,-9.10
2022-12-18T05:05:16.291Z,-9.14
2022-12-18T05:07:45.269Z,-9.01
2022-12-18T05:10:13.681Z,-8.96
2022-12-18T05:12:59.093Z,-9.10
2022-12-18T05:15:30.264Z,-8.97
2022-12-18T05:17:58.212Z,-9.02
2022-12-18T05:20:26.253Z,-9.02
2022-12-18T05:22:55.460Z,-9.13
2022-12-18T05:25:24.161Z,-9.10
2022-12-18T05:27:51.842Z,-8.98
2022-12-18T05:30:19.745Z,-9.09
2022-12-18T05:32:47.380Z,-9.03
2022-12-18T05:35:14.951Z,-9.13
2022-12-18T05:37:43.416Z,-9.08
2022-12-18T05:40:13.829Z,-9.13
2022-12-18T05:42:41.535Z,-9.08
2022-12-18T05:45:09.975Z,-9.07
2022-12-18T05:47:37.973Z,-9.07
2022-12-18T05:50:06.606Z,-9.21
2022-12-18T05:52:34.234Z,-9.18
2022-12-18T05:55:01.957Z,-9.21
2022-12-18T05:57:30.895Z,-9.25
2022-12-18T05:59:58.509Z,-9.28
2022-12-18T06:02:26.081Z,-9.35
2022-12-18T06:04:53.715Z,-9.32
2022-12-18T06:07:21.314Z,-9.28
2022-12-18T06:09:48.922Z,-9.32
2022-12-18T06:12:16.641Z,-9.32
2022-12-18T06:14:45.781Z,-9.28
2022-12-18T06:17:13.379Z,-9.28
2022-12-18T06:19:40.975Z,-9.21
2022-12-18T06:22:08.597Z,-9.18
2022-12-18T06:24:36.217Z,-9.14
2022-12-18T06:27:03.858Z,-9.13
2022-12-18T06:29:31.422Z,-9.07
2022-12-18T06:32:00.406Z,-9.11
2022-12-18T06:34:28.107Z,-9.09
2022-12-18T06:36:55.673Z,-9.08
2022-12-18T06:39:23.460Z,-9.05
2022-12-18T06:41:51.021Z,-9.30
2022-12-18T06:44:18.896Z,-9.18
2022-12-18T06:46:46.578Z,-9.12
2022-12-18T06:49:16.909Z,-9.19
2022-12-18T06:51:44.564Z,-9.21
2022-12-18T06:54:12.206Z,-9.15
2022-12-18T06:56:39.891Z,-9.05
2022-12-18T06:59:07.616Z,-9.01
2022-12-18T07:01:35.399Z,-9.12
2022-12-18T07:04:03.058Z,-9.04
2022-12-18T07:06:32.204Z,-9.07
2022-12-18T07:08:59.816Z,-9.16
2022-12-18T07:11:27.366Z,-9.08
2022-12-18T07:13:55.291Z,-9.03
2022-12-18T07:16:25.663Z,-9.20
2022-12-18T07:18:53.796Z,-9.15
2022-12-18T07:21:21.880Z,-9.08
2022-12-18T07:23:50.878Z,-9.15
2022-12-18T07:26:20.202Z,-9.22
2022-12-18T07:28:48.225Z,-9.23
2022-12-18T07:31:17.429Z,-9.13
2022-12-18T07:33:45.541Z,-9.26
2022-12-18T07:36:13.539Z,-9.15
2022-12-18T07:38:41.371Z,-9.13
2022-12-18T07:41:11.917Z,-9.04
2022-12-18T07:43:41.070Z,-9.05
2022-12-18T07:46:10.746Z,-9.04
2022-12-18T07:48:41.291Z,-9.02
2022-12-18T07:51:09.588Z,-9.02
2022-12-18T07:53:38.674Z,-8.95
2022-12-18T07:58:58.462Z,-9.05
2022-12-18T08:01:26.277Z,-8.93
2022-12-18T08:03:54.239Z,-8.81
2022-12-18T08:06:22.587Z,-8.58
2022-12-18T08:08:53.152Z,-8.66
2022-12-18T08:11:20.781Z,-8.66
2022-12-18T08:13:49.134Z,-8.54
2022-12-18T08:16:20.047Z,-8.46
2022-12-18T08:18:48.687Z,-8.34
2022-12-18T08:21:19.065Z,-8.27
2022-12-18T08:23:51.111Z,-8.05
2022-12-18T08:26:19.318Z,-8.10
2022-12-18T08:28:47.311Z,-7.94
2022-12-18T08:31:15.711Z,-7.87
2022-12-18T08:33:45.245Z,-7.61
2022-12-18T08:36:13.364Z,-6.99
2022-12-18T08:38:41.080Z,-7.28
2022-12-18T08:41:11.217Z,-7.51
2022-12-18T08:43:56.943Z,-7.61
2022-12-18T08:46:26.406Z,-7.44
2022-12-18T08:48:56.723Z,-7.66
2022-12-18T08:51:24.311Z,-7.50
2022-12-18T08:53:51.945Z,-7.60
2022-12-18T08:56:20.217Z,-7.72
2022-12-18T08:58:48.018Z,-7.53
2022-12-18T09:01:15.934Z,-7.75
2022-12-18T09:03:44.398Z,-7.66
2022-12-18T09:06:16.017Z,-7.63
2022-12-18T09:08:44.166Z,-7.65
2022-12-18T09:11:16.057Z,-7.52
2022-12-18T09:13:44.181Z,-7.73
2022-12-18T09:16:11.736Z,-7.51
2022-12-18T09:18:39.635Z,-7.72
2022-12-18T09:21:13.618Z,-7.78
2022-12-18T09:23:41.208Z,-7.93
2022-12-18T09:26:09.455Z,-7.77
2022-12-18T09:28:37.388Z,-7.73
2022-12-18T09:31:09.664Z,-7.58
2022-12-18T09:33:37.771Z,-7.66
2022-12-18T09:36:08.536Z,-7.59
2022-12-18T09:38:38.132Z,-7.55
2022-12-18T09:41:08.660Z,-7.49
2022-12-18T09:43:39.416Z,-7.28
2022-12-18T09:46:09.971Z,-7.60
2022-12-18T09:48:39.890Z,-7.46
2022-12-18T09:51:14.415Z,-7.27
2022-12-18T09:53:46.969Z,-7.63
2022-12-18T09:56:18.251Z,-7.38
2022-12-18T09:58:50.408Z,-7.24
2022-12-18T10:01:21.678Z,-7.07
2022-12-18T10:03:51.594Z,-6.88
2022-12-18T10:06:24.441Z,-6.97
2022-12-18T10:08:58.442Z,-6.97
2022-12-18T10:11:40.077Z,-6.82
2022-12-18T10:14:14.222Z,-6.54
2022-12-18T10:16:52.279Z,-6.94
2022-12-18T10:19:34.274Z,-6.78
2022-12-18T10:22:21.162Z,-7.01
2022-12-18T10:24:55.226Z,-6.64
2022-12-18T10:27:25.887Z,-6.59
2022-12-18T10:29:54.157Z,-6.60
2022-12-18T10:32:26.591Z,-6.31
2022-12-18T10:35:00.549Z,-6.29
2022-12-18T10:37:30.634Z,-6.25
2022-12-18T10:40:16.647Z,-6.52
2022-12-18T10:42:47.779Z,-6.25
2022-12-18T10:45:17.478Z,-6.37
2022-12-18T10:47:47.458Z,-6.27
2022-12-18T10:50:26.243Z,-6.06
2022-12-18T10:53:01.296Z,-5.88
2022-12-18T10:55:37.935Z,-5.73
2022-12-18T10:58:24.975Z,-5.65
2022-12-18T11:01:08.847Z,-5.55
2022-12-18T11:03:38.930Z,-5.56
2022-12-18T11:06:09.275Z,-5.37
2022-12-18T11:08:38.060Z,-5.27
2022-12-18T11:11:18.895Z,-5.35
2022-12-18T11:13:58.102Z,-5.46
2022-12-18T11:16:26.696Z,-5.50
2022-12-18T11:18:54.744Z,-5.57
2022-12-18T11:21:22.943Z,-5.30
2022-12-18T11:23:52.418Z,-5.36
2022-12-18T11:26:22.690Z,-5.32
2022-12-18T11:28:53.834Z,-5.32
2022-12-18T11:31:26.785Z,-5.49
2022-12-18T11:36:51.962Z,-5.35
2022-12-18T11:39:22.504Z,-5.52
2022-12-18T11:42:11.127Z,-5.47
2022-12-18T11:44:48.334Z,-5.39
2022-12-18T11:47:23.482Z,-5.45
2022-12-18T11:49:51.791Z,-5.47
2022-12-18T11:52:23.822Z,-5.45
2022-12-18T11:54:54.489Z,-5.44
2022-12-18T11:57:35.930Z,-5.24
2022-12-18T12:00:06.714Z,-5.47
2022-12-18T12:02:49.650Z,-5.60
2022-12-18T12:05:30.286Z,-5.60
2022-12-18T12:08:03.661Z,-5.70
2022-12-18T12:10:39.561Z,-5.66
2022-12-18T12:13:26.405Z,-6.10
2022-12-18T12:16:04.686Z,-5.90
2022-12-18T12:18:44.986Z,-6.01
2022-12-18T12:21:16.320Z,-5.92
2022-12-18T12:23:51.336Z,-5.86
2022-12-18T12:26:22.204Z,-5.92
2022-12-18T12:29:02.330Z,-6.10
2022-12-18T12:31:40.519Z,-6.03
2022-12-18T12:34:16.250Z,-5.87
2022-12-18T12:36:56.446Z,-6.05
2022-12-18T12:39:27.014Z,-5.87
2022-12-18T12:42:12.926Z,-5.94
2022-12-18T12:44:45.234Z,-5.81
2022-12-18T12:47:17.785Z,-5.84
2022-12-18T12:49:50.251Z,-5.93
2022-12-18T12:52:30.780Z,-5.90
2022-12-18T12:54:58.834Z,-5.75
2022-12-18T12:57:33.377Z,-5.66
2022-12-18T13:00:06.473Z,-5.65
2022-12-18T13:02:38.854Z,-5.74
2022-12-18T13:05:14.790Z,-5.78
2022-12-18T13:07:44.313Z,-5.67
2022-12-18T13:10:34.862Z,-5.70
2022-12-18T13:13:03.883Z,-5.80
2022-12-18T13:15:39.986Z,-5.83
2022-12-18T13:18:14.400Z,-5.88
2022-12-18T13:20:46.630Z,-5.79
2022-12-18T13:23:28.044Z,-5.88
2022-12-18T13:25:56.765Z,-5.77
2022-12-18T13:28:26.912Z,-5.86
2022-12-18T13:30:58.420Z,-5.94
2022-12-18T13:34:23.815Z,-5.78
2022-12-18T13:36:36.405Z,-5.80
2022-12-18T13:39:30.229Z,-5.71
2022-12-18T13:43:04.922Z,-5.76
2022-12-18T13:45:40.560Z,-5.97
2022-12-18T13:51:06.122Z,-6.05
2022-12-18T13:53:43.833Z,-6.01
2022-12-18T13:56:19.513Z,-5.99
2022-12-18T13:58:50.384Z,-5.91
2022-12-18T14:01:27.226Z,-5.91
2022-12-18T14:04:13.340Z,-6.00
2022-12-18T14:06:42.772Z,-5.87
2022-12-18T14:09:20.296Z,-5.85
2022-12-18T14:11:50.202Z,-5.94
2022-12-18T14:14:22.774Z,-5.73
2022-12-18T14:16:52.681Z,-5.93
2022-12-18T14:19:25.550Z,-5.89
2022-12-18T14:21:53.834Z,-5.95
2022-12-18T14:24:23.441Z,-5.83
2022-12-18T14:26:53.231Z,-5.71
2022-12-18T14:29:24.307Z,-5.93
2022-12-18T14:32:16.558Z,-5.86
2022-12-18T14:34:49.183Z,-5.87
2022-12-18T14:37:18.695Z,-5.81
2022-12-18T14:40:00.101Z,-5.86
2022-12-18T14:42:29.445Z,-5.95
2022-12-18T14:45:41.644Z,-5.93
2022-12-18T14:48:13.952Z,-5.82
2022-12-18T14:50:44.899Z,-5.95
2022-12-18T14:53:23.182Z,-6.03
2022-12-18T14:55:51.035Z,-5.94
2022-12-18T14:58:20.879Z,-5.79
2022-12-18T15:00:49.813Z,-5.90
2022-12-18T15:03:20.965Z,-5.99
2022-12-18T15:05:50.221Z,-6.18
2022-12-18T15:08:31.433Z,-5.99
2022-12-18T15:10:59.452Z,-6.13
2022-12-18T15:13:27.475Z,-6.07
2022-12-18T15:15:56.825Z,-6.00
2022-12-18T15:18:32.066Z,-6.14
2022-12-18T15:21:02.998Z,-6.04
2022-12-18T15:24:26.819Z,-6.04
2022-12-18T15:26:55.697Z,-6.07
2022-12-18T15:29:26.254Z,-6.00
2022-12-18T15:32:04.980Z,-6.14
2022-12-18T15:34:35.279Z,-6.24
2022-12-18T15:37:04.309Z,-6.08
2022-12-18T15:39:31.929Z,-6.03
2022-12-18T15:42:22.603Z,-6.00
2022-12-18T15:44:50.586Z,-6.02
2022-12-18T15:47:18.467Z,-6.07
2022-12-18T15:49:46.132Z,-6.26
2022-12-18T15:52:27.325Z,-6.05
2022-12-18T15:55:12.715Z,-5.93
2022-12-18T15:57:40.867Z,-5.99
2022-12-18T16:00:14.048Z,-5.97
2022-12-18T16:02:41.790Z,-5.98
2022-12-18T16:05:12.668Z,-5.95
2022-12-18T16:07:41.608Z,-5.87
2022-12-18T16:10:09.975Z,-5.95
2022-12-18T16:12:38.013Z,-5.98
2022-12-18T16:15:06.952Z,-5.97
2022-12-18T16:17:35.100Z,-5.88
2022-12-18T16:20:02.735Z,-5.99
2022-12-18T16:22:31.742Z,-6.04
2022-12-18T16:25:00.663Z,-6.01
2022-12-18T16:27:29.347Z,-5.91
2022-12-18T16:29:57.011Z,-6.09
2022-12-18T16:32:25.100Z,-5.94
2022-12-18T16:34:53.733Z,-5.85
2022-12-18T16:37:21.625Z,-5.87
2022-12-18T16:39:49.709Z,-5.76
2022-12-18T16:42:21.046Z,-5.97
2022-12-18T16:44:51.467Z,-5.68
2022-12-18T16:47:19.392Z,-5.64
2022-12-18T16:49:47.470Z,-5.76
2022-12-18T16:52:15.665Z,-5.78
2022-12-18T16:54:44.521Z,-5.75
2022-12-18T16:57:15.014Z,-5.62
2022-12-18T16:59:44.755Z,-5.68
2022-12-18T17:02:15.583Z,-5.61
2022-12-18T17:04:44.943Z,-5.73
2022-12-18T17:07:12.906Z,-5.71
2022-12-18T17:09:40.906Z,-5.89
2022-12-18T17:12:08.849Z,-5.85
2022-12-18T17:14:37.249Z,-5.75
2022-12-18T17:17:20.952Z,-5.83
2022-12-18T17:19:49.263Z,-5.87
2022-12-18T17:22:16.913Z,-5.84
2022-12-18T17:24:44.505Z,-5.75
2022-12-18T17:27:12.134Z,-5.81
2022-12-18T17:29:45.345Z,-5.78
2022-12-18T17:32:17.116Z,-5.80
2022-12-18T17:34:54.995Z,-5.64
2022-12-18T17:37:23.179Z,-5.55
2022-12-18T17:39:50.741Z,-5.50
2022-12-18T17:42:18.331Z,-5.58
2022-12-18T17:44:46.007Z,-5.58
2022-12-18T17:47:13.602Z,-5.50
2022-12-18T17:49:42.580Z,-5.57
2022-12-18T17:52:10.304Z,-5.56
2022-12-18T17:54:39.765Z,-5.54
2022-12-18T17:57:07.619Z,-5.46
2022-12-18T17:59:35.248Z,-5.50
2022-12-18T18:02:03.788Z,-5.49
2022-12-18T18:04:32.323Z,-5.51
2022-12-18T18:07:03.167Z,-5.42
2022-12-18T18:09:31.096Z,-5.42
2022-12-18T18:12:16.230Z,-5.35
2022-12-18T18:14:43.900Z,-5.34
2022-12-18T18:17:12.444Z,-5.47
2022-12-18T18:19:40.053Z,-5.40
2022-12-18T18:22:10.323Z,-5.45
2022-12-18T18:24:38.600Z,-5.59
2022-12-18T18:27:06.278Z,-5.48
2022-12-18T18:29:33.871Z,-5.53
2022-12-18T18:32:03.096Z,-5.40
2022-12-18T18:34:32.759Z,-5.51
2022-12-18T18:37:00.954Z,-5.47
2022-12-18T18:39:30.630Z,-5.51
2022-12-18T18:41:59.337Z,-5.43
2022-12-18T18:44:27.070Z,-5.62
2022-12-18T18:46:55.778Z,-5.42
2022-12-18T18:49:24.324Z,-5.45
2022-12-18T18:51:52.039Z,-5.40
2022-12-18T18:54:19.650Z,-5.65
2022-12-18T18:57:19.521Z,-5.38
2022-12-18T18:59:37.024Z,-5.36
2022-12-18T19:02:05.188Z,-5.38
2022-12-18T19:04:33.301Z,-5.39
2022-12-18T19:07:01.107Z,-5.22
2022-12-18T19:09:29.379Z,-5.16
2022-12-18T19:12:15.944Z,-5.33
2022-12-18T19:14:43.895Z,-5.29
2022-12-18T19:17:11.725Z,-5.33
2022-12-18T19:19:40.068Z,-5.26
2022-12-18T19:22:09.252Z,-5.24
2022-12-18T19:24:36.872Z,-5.18
2022-12-18T19:27:05.859Z,-5.28
2022-12-18T19:29:37.616Z,-5.29
2022-12-18T19:32:05.921Z,-5.19
2022-12-18T19:34:33.537Z,-5.25
2022-12-18T19:37:02.217Z,-5.12
2022-12-18T19:39:29.742Z,-5.15
2022-12-18T19:41:57.663Z,-5.20
2022-12-18T19:44:26.747Z,-5.15
2022-12-18T19:46:54.390Z,-5.23
2022-12-18T19:49:21.978Z,-5.15
2022-12-18T19:51:50.257Z,-5.27
2022-12-18T19:54:18.584Z,-5.06
2022-12-18T19:56:46.816Z,-5.13
2022-12-18T19:59:16.397Z,-5.01
2022-12-18T20:01:45.555Z,-5.20
2022-12-18T20:04:13.481Z,-5.12
2022-12-18T20:06:48.271Z,-4.99
2022-12-18T20:09:16.393Z,-5.07
2022-12-18T20:11:44.454Z,-5.15
2022-12-18T20:14:12.524Z,-5.16
2022-12-18T20:16:40.820Z,-5.13
2022-12-18T20:19:11.292Z,-4.99
2022-12-18T20:21:39.002Z,-4.96
2022-12-18T20:24:08.280Z,-4.96
2022-12-18T20:26:35.843Z,-4.96
2022-12-18T20:29:03.457Z,-5.02
2022-12-18T20:31:31.367Z,-5.12
2022-12-18T20:34:01.457Z,-5.08
2022-12-18T20:36:34.069Z,-5.09
2022-12-18T20:39:04.034Z,-5.04
2022-12-18T20:41:38.197Z,-4.98
2022-12-18T20:44:09.847Z,-5.04
2022-12-18T20:46:50.448Z,-4.96
2022-12-18T20:49:18.062Z,-5.00
2022-12-18T20:51:46.951Z,-4.96
2022-12-18T20:54:14.557Z,-4.91
2022-12-18T20:56:42.108Z,-4.89
2022-12-18T20:59:11.336Z,-4.89
2022-12-18T21:01:41.492Z,-4.85
2022-12-18T21:04:15.840Z,-4.87
2022-12-18T21:06:50.998Z,-4.91
2022-12-18T21:09:20.376Z,-4.89
2022-12-18T21:12:05.475Z,-4.78
2022-12-18T21:14:33.230Z,-4.74
2022-12-18T21:17:02.007Z,-4.77
2022-12-18T21:19:29.874Z,-4.77
2022-12-18T21:21:59.278Z,-4.87
2022-12-18T21:24:28.192Z,-4.74
2022-12-18T21:26:56.463Z,-4.76
2022-12-18T21:29:25.421Z,-4.72
2022-12-18T21:31:55.486Z,-4.71
2022-12-18T21:34:25.401Z,-4.54
2022-12-18T21:36:53.731Z,-4.61
2022-12-18T21:39:22.858Z,-4.72
2022-12-18T21:42:08.554Z,-4.61
2022-12-18T21:44:41.660Z,-4.59
2022-12-18T21:47:20.904Z,-4.64
2022-12-18T21:49:50.083Z,-4.75
2022-12-18T21:52:17.913Z,-4.63
2022-12-18T21:54:46.909Z,-4.75
2022-12-18T21:57:14.648Z,-4.61
2022-12-18T21:59:44.259Z,-4.65
2022-12-18T22:02:13.840Z,-4.48
2022-12-18T22:04:41.772Z,-4.58
2022-12-18T22:07:09.450Z,-4.68
2022-12-18T22:09:38.968Z,-4.70
2022-12-18T22:12:08.890Z,-4.73
2022-12-18T22:14:36.623Z,-4.62
2022-12-18T22:17:04.238Z,-4.65
2022-12-18T22:19:35.700Z,-4.56
2022-12-18T22:22:07.722Z,-4.56
2022-12-18T22:24:35.371Z,-4.65
2022-12-18T22:27:03.049Z,-4.53
2022-12-18T22:29:49.500Z,-4.59
2022-12-18T22:32:31.038Z,-4.52
2022-12-18T22:35:05.209Z,-4.47
2022-12-18T22:37:33.784Z,-4.44
2022-12-18T22:40:03.188Z,-4.41
2022-12-18T22:42:31.478Z,-4.40
2022-12-18T22:45:00.628Z,-4.37
2022-12-18T22:47:30.525Z,-4.38
2022-12-18T22:49:58.480Z,-4.51
2022-12-18T22:52:26.542Z,-4.35
2022-12-18T22:54:54.574Z,-4.34
2022-12-18T22:57:22.593Z,-4.28
2022-12-18T22:59:50.218Z,-4.26
2022-12-18T23:02:19.667Z,-4.28
2022-12-18T23:04:47.595Z,-4.28
2022-12-18T23:07:15.537Z,-4.20
2022-12-18T23:09:43.261Z,-4.41
2022-12-18T23:12:16.494Z,-4.28
2022-12-18T23:14:44.366Z,-4.33
2022-12-18T23:17:12.265Z,-4.28
2022-12-18T23:19:47.165Z,-4.27
2022-12-18T23:22:16.657Z,-4.27
2022-12-18T23:24:44.333Z,-4.28
2022-12-18T23:27:12.340Z,-4.14
2022-12-18T23:29:40.108Z,-4.18
2022-12-18T23:32:07.819Z,-4.28
2022-12-18T23:34:35.528Z,-4.26
2022-12-18T23:37:04.595Z,-4.24
2022-12-18T23:39:32.422Z,-4.28
2022-12-18T23:42:00.493Z,-4.17
2022-12-18T23:44:28.546Z,-4.12
2022-12-18T23:46:56.402Z,-4.25
2022-12-18T23:49:24.386Z,-4.26
2022-12-18T23:51:55.441Z,-4.19
2022-12-18T23:54:33.437Z,-4.19
2022-12-18T23:57:02.307Z,-4.03
2022-12-18T23:59:30.741Z,-4.02
